CST,Max TemperatureF,Mean TemperatureF,Min TemperatureF,Max Dew PointF,MeanDew PointF,Min DewpointF,Max Humidity, Mean Humidity, Min Humidity, Max Sea Level PressureIn, Mean Sea Level PressureIn, Min Sea Level PressureIn, Max VisibilityMiles, Mean VisibilityMiles, Min VisibilityMiles, Max Wind SpeedMPH, Mean Wind SpeedMPH, Max Gust SpeedMPH,PrecipitationIn, CloudCover, Events, WindDirDegrees
2014-1-1,69,50,31,44,33,23,82,59,36,30.22,30.03,29.86,10,10,10,31,15,38,0.00,0,,196
2014-1-2,43,34,25,21,17,15,69,51,33,30.50,30.42,30.24,10,10,10,31,13,36,0.00,0,,340
2014-1-3,52,39,25,23,21,17,75,52,28,30.45,30.27,30.01,10,10,10,25,12,30,0.00,2,,163
2014-1-4,70,56,41,50,41,25,86,64,41,30.01,29.83,29.71,10,10,10,29,18,34,0.00,4,,188
2014-1-5,50,36,21,31,18,6,69,55,40,30.57,30.18,29.79,10,10,10,33,22,39,0.00,4,,335
2014-1-6,33,24,15,8,3,1,53,39,25,30.77,30.66,30.59,10,10,10,23,11,26,0.00,3,,332
2014-1-7,48,34,19,15,11,8,62,42,22,30.57,30.42,30.27,10,10,10,24,13,29,0.00,2,,188
2014-1-8,48,44,39,46,38,16,100,67,33,30.25,30.17,30.10,10,4,1,22,12,28,0.14,8,Rain,151
2014-1-9,48,45,41,46,43,40,100,96,92,30.20,30.11,29.99,3,1,0,12,6,13,0.08,8,Fog-Rain,73
2014-1-10,70,59,47,61,51,36,100,78,56,29.97,29.80,29.65,10,7,0,20,9,25,0.11,6,Fog-Rain,188
2014-1-11,69,53,37,37,29,22,76,46,16,30.11,30.02,29.83,10,10,10,21,9,27,0.00,1,,268
2014-1-12,74,58,42,54,38,27,72,46,20,30.01,29.88,29.77,10,10,10,36,20,44,0.00,3,,185
2014-1-13,64,53,42,55,30,17,80,49,17,30.06,29.96,29.76,10,10,10,26,15,34,0.00,2,,290
2014-1-14,66,49,32,33,24,16,69,45,20,30.34,30.12,30.00,10,10,10,29,12,37,0.00,2,,300
2014-1-15,58,46,33,26,21,16,52,38,24,30.41,30.26,30.09,10,10,10,16,9,20,0.00,2,,281
2014-1-16,66,51,35,31,23,9,70,43,16,30.19,30.09,30.00,10,10,10,22,10,27,0.00,4,,293
2014-1-17,55,47,38,18,12,8,40,28,15,30.38,30.27,30.19,10,10,7,21,11,26,0.00,4,,333
2014-1-18,69,52,35,28,24,18,56,38,20,30.18,30.12,30.03,10,10,10,23,12,28,0.00,0,,244
2014-1-19,65,52,39,28,25,22,51,35,19,30.30,30.17,30.03,10,10,10,14,8,17,0.00,0,,245
2014-1-20,73,58,42,37,30,24,62,42,22,30.21,29.97,29.83,10,10,10,24,12,31,0.00,1,,246
2014-1-21,52,44,36,25,15,8,45,33,21,30.45,30.31,30.17,10,10,10,24,11,29,0.00,0,,352
2014-1-22,60,45,30,27,22,17,69,49,28,30.18,30.11,30.03,10,10,10,17,8,20,0.00,5,,84
2014-1-23,45,35,24,21,8,-2,51,39,27,30.78,30.54,30.19,10,10,9,30,20,35,T,8,,20
2014-1-24,43,31,18,11,3,-3,49,33,17,30.77,30.55,30.25,10,10,10,17,10,22,0.00,3,,251
2014-1-25,68,47,26,31,24,13,68,46,24,30.22,30.08,29.96,10,10,10,13,7,16,0.00,5,,204
2014-1-26,74,61,47,37,34,31,61,42,23,29.94,29.77,29.62,10,10,10,17,9,23,0.00,5,,162
2014-1-27,52,39,25,35,8,-4,65,41,17,30.36,30.17,29.79,10,10,10,38,23,52,0.00,5,,14
2014-1-28,36,29,22,13,5,-3,50,41,31,30.52,30.44,30.35,10,10,10,24,12,29,0.00,5,,14
2014-1-29,47,32,16,15,11,8,74,48,21,30.47,30.34,30.17,10,10,10,20,9,24,0.00,2,,189
2014-1-30,60,46,32,47,30,12,80,59,38,30.16,29.93,29.80,10,10,10,39,20,47,0.00,6,,178
2014-1-31,74,63,52,58,52,48,86,65,44,29.86,29.78,29.73,10,10,10,24,17,33,0.00,7,,179